AWQ542 WADD-YBCS
Flight info
| Callsign | AWQ542 |
|---|---|
| Flight time | N/A |
| Altitude | 33000 |
| Route | GABIT M766 IDOTO DCT 13S130E 15S135E DCT SURVO DCT ANDEE J61 PUNIT |
| Aircraft | A320/M-SDE3FGHIRWY/LB1 |
Departure
| Time | 2026-05-08 02:06 |
|---|---|
| Airport | Denpasar I Gusti Ngurah Rai International Airport (WADD) |
Arrival
| Time | N/A |
|---|---|
| Airport | Cairns International Airport (YBCS) |
| Time | Latitude | Longitude | Altitude | Speed | Heading |
|---|---|---|---|---|---|
| 2026-05-08 01:38 | -8.74548 | 115.16672 | 33 ft | 0 kts | 358° |
| 2026-05-08 01:55 | -8.74549 | 115.16672 | 33 ft | 1 kts | 358° |
| 2026-05-08 01:55 | -8.74573 | 115.16673 | 33 ft | 4 kts | 355° |
| 2026-05-08 01:55 | -8.74600 | 115.16676 | 33 ft | 4 kts | 353° |
| 2026-05-08 01:56 | -8.74627 | 115.16679 | 33 ft | 4 kts | 349° |
| 2026-05-08 01:56 | -8.74653 | 115.16686 | 32 ft | 4 kts | 340° |
| 2026-05-08 01:56 | -8.74675 | 115.16698 | 32 ft | 4 kts | 303° |
| 2026-05-08 01:56 | -8.74680 | 115.16708 | 32 ft | 0 kts | 268° |
| 2026-05-08 02:00 | -8.74681 | 115.16683 | 32 ft | 7 kts | 267° |
| 2026-05-08 02:00 | -8.74682 | 115.16660 | 32 ft | 7 kts | 267° |
| 2026-05-08 02:00 | -8.74683 | 115.16641 | 29 ft | 6 kts | 267° |
| 2026-05-08 02:00 | -8.74687 | 115.16558 | 31 ft | 15 kts | 267° |
| 2026-05-08 02:01 | -8.74691 | 115.16462 | 32 ft | 13 kts | 268° |
| 2026-05-08 02:01 | -8.74694 | 115.16375 | 32 ft | 13 kts | 268° |
| 2026-05-08 02:01 | -8.74697 | 115.16289 | 32 ft | 12 kts | 267° |
| 2026-05-08 02:01 | -8.74701 | 115.16193 | 33 ft | 15 kts | 268° |
| 2026-05-08 02:02 | -8.74705 | 115.16093 | 33 ft | 13 kts | 268° |
| 2026-05-08 02:02 | -8.74710 | 115.15986 | 33 ft | 17 kts | 268° |
| 2026-05-08 02:02 | -8.74714 | 115.15875 | 32 ft | 15 kts | 267° |
| 2026-05-08 02:02 | -8.74718 | 115.15778 | 32 ft | 13 kts | 267° |
| 2026-05-08 02:03 | -8.74721 | 115.15692 | 32 ft | 13 kts | 268° |
| 2026-05-08 02:03 | -8.74725 | 115.15600 | 32 ft | 12 kts | 268° |
| 2026-05-08 02:03 | -8.74728 | 115.15521 | 31 ft | 10 kts | 268° |
| 2026-05-08 02:03 | -8.74730 | 115.15455 | 32 ft | 9 kts | 268° |
| 2026-05-08 02:04 | -8.74749 | 115.15406 | 32 ft | 7 kts | 227° |
| 2026-05-08 02:04 | -8.74792 | 115.15391 | 31 ft | 7 kts | 182° |
| 2026-05-08 02:04 | -8.74842 | 115.15393 | 29 ft | 8 kts | 177° |
| 2026-05-08 02:04 | -8.74884 | 115.15395 | 28 ft | 3 kts | 176° |
| 2026-05-08 02:05 | -8.74891 | 115.15402 | 28 ft | 3 kts | 133° |
| 2026-05-08 02:05 | -8.74895 | 115.15419 | 28 ft | 1 kts | 88° |
| 2026-05-08 02:05 | -8.74892 | 115.15482 | 29 ft | 34 kts | 88° |
| 2026-05-08 02:05 | -8.74875 | 115.15966 | 29 ft | 100 kts | 88° |
| 2026-05-08 02:06 | -8.74839 | 115.16858 | 28 ft | 151 kts | 87° |
| 2026-05-08 02:06 | -8.74811 | 115.18036 | 268 ft | 175 kts | 91° |
| 2026-05-08 02:06 | -8.74768 | 115.19281 | 977 ft | 177 kts | 90° |
| 2026-05-08 02:06 | -8.74713 | 115.20515 | 1773 ft | 176 kts | 90° |
| 2026-05-08 02:07 | -8.74656 | 115.21777 | 2203 ft | 187 kts | 90° |
| 2026-05-08 02:07 | -8.74597 | 115.23168 | 2390 ft | 211 kts | 89° |
| 2026-05-08 02:07 | -8.74532 | 115.24730 | 2615 ft | 234 kts | 89° |
| 2026-05-08 02:07 | -8.74461 | 115.26444 | 3041 ft | 251 kts | 89° |
| 2026-05-08 02:08 | -8.74385 | 115.28197 | 3735 ft | 255 kts | 89° |
| 2026-05-08 02:08 | -8.74308 | 115.30004 | 4458 ft | 259 kts | 89° |
| 2026-05-08 02:08 | -8.74234 | 115.31840 | 5161 ft | 263 kts | 89° |
| 2026-05-08 02:08 | -8.74158 | 115.33696 | 5874 ft | 266 kts | 89° |
| 2026-05-08 02:09 | -8.74080 | 115.35582 | 6574 ft | 270 kts | 89° |
| 2026-05-08 02:09 | -8.74001 | 115.37490 | 7226 ft | 274 kts | 89° |
| 2026-05-08 02:09 | -8.73921 | 115.39432 | 7872 ft | 279 kts | 89° |
| 2026-05-08 02:09 | -8.73841 | 115.41406 | 8524 ft | 282 kts | 89° |
| 2026-05-08 02:10 | -8.73759 | 115.43401 | 9145 ft | 286 kts | 88° |
| 2026-05-08 02:10 | -8.73673 | 115.45455 | 9740 ft | 290 kts | 89° |
| 2026-05-08 02:10 | -8.73592 | 115.47489 | 10191 ft | 300 kts | 89° |
| 2026-05-08 02:10 | -8.73731 | 115.49660 | 10330 ft | 320 kts | 101° |
| 2026-05-08 02:11 | -8.74363 | 115.51908 | 10495 ft | 337 kts | 113° |
| 2026-05-08 02:11 | -8.75485 | 115.53995 | 10852 ft | 347 kts | 124° |
| 2026-05-08 02:11 | -8.76858 | 115.56016 | 11377 ft | 351 kts | 124° |
| 2026-05-08 02:11 | -8.78241 | 115.58061 | 11902 ft | 354 kts | 124° |
| 2026-05-08 02:12 | -8.79637 | 115.60134 | 12416 ft | 359 kts | 124° |
| 2026-05-08 02:12 | -8.81045 | 115.62232 | 12932 ft | 362 kts | 124° |
| 2026-05-08 02:12 | -8.82462 | 115.64349 | 13427 ft | 366 kts | 124° |
| 2026-05-08 02:12 | -8.83895 | 115.66490 | 13912 ft | 369 kts | 124° |
| 2026-05-08 02:13 | -8.85343 | 115.68654 | 14388 ft | 373 kts | 124° |
| 2026-05-08 02:13 | -8.86809 | 115.70835 | 14849 ft | 377 kts | 124° |
| 2026-05-08 02:13 | -8.88288 | 115.73033 | 15318 ft | 380 kts | 124° |
| 2026-05-08 02:13 | -8.89781 | 115.75256 | 15773 ft | 384 kts | 124° |
| 2026-05-08 02:14 | -8.91286 | 115.77498 | 16205 ft | 387 kts | 124° |
| 2026-05-08 02:14 | -8.92802 | 115.79759 | 16633 ft | 390 kts | 124° |
| 2026-05-08 02:14 | -8.94189 | 115.82135 | 17048 ft | 395 kts | 115° |
| 2026-05-08 02:14 | -8.94865 | 115.83845 | 17327 ft | 397 kts | 108° |
| 2026-05-08 02:15 | -8.95572 | 115.86550 | 17736 ft | 400 kts | 104° |
| 2026-05-08 02:15 | -8.96247 | 115.89290 | 18144 ft | 403 kts | 104° |
| 2026-05-08 02:15 | -8.96929 | 115.92046 | 18524 ft | 406 kts | 104° |
| 2026-05-08 02:15 | -8.97618 | 115.94819 | 18919 ft | 408 kts | 104° |
| 2026-05-08 02:16 | -8.98313 | 115.97606 | 19318 ft | 410 kts | 104° |
| 2026-05-08 02:16 | -8.99015 | 116.00410 | 19682 ft | 412 kts | 104° |
| 2026-05-08 02:16 | -8.99722 | 116.03229 | 20045 ft | 415 kts | 104° |
| 2026-05-08 02:16 | -9.00435 | 116.06066 | 20387 ft | 417 kts | 105° |
| 2026-05-08 02:17 | -9.01149 | 116.08915 | 20748 ft | 419 kts | 105° |
| 2026-05-08 02:17 | -9.01864 | 116.11784 | 21095 ft | 422 kts | 104° |
| 2026-05-08 02:17 | -9.02582 | 116.14667 | 21431 ft | 424 kts | 105° |
| 2026-05-08 02:17 | -9.03303 | 116.17571 | 21765 ft | 426 kts | 105° |
| 2026-05-08 02:18 | -9.04028 | 116.20486 | 22102 ft | 429 kts | 105° |
| 2026-05-08 02:18 | -9.04754 | 116.23413 | 22432 ft | 430 kts | 105° |
| 2026-05-08 02:18 | -9.05484 | 116.26356 | 22751 ft | 432 kts | 105° |
| 2026-05-08 02:18 | -9.06207 | 116.29269 | 23055 ft | 434 kts | 105° |
| 2026-05-08 02:19 | -9.06945 | 116.32234 | 23359 ft | 435 kts | 105° |
| 2026-05-08 02:19 | -9.07686 | 116.35209 | 23647 ft | 437 kts | 105° |
| 2026-05-08 02:19 | -9.08432 | 116.38194 | 23918 ft | 439 kts | 105° |
| 2026-05-08 02:19 | -9.09182 | 116.41198 | 24199 ft | 441 kts | 105° |
| 2026-05-08 02:20 | -9.09931 | 116.44210 | 24476 ft | 443 kts | 105° |
| 2026-05-08 02:20 | -9.10684 | 116.47237 | 24741 ft | 445 kts | 105° |
| 2026-05-08 02:20 | -9.11440 | 116.50277 | 24985 ft | 447 kts | 105° |
| 2026-05-08 02:20 | -9.12200 | 116.53334 | 25227 ft | 449 kts | 105° |
| 2026-05-08 02:21 | -9.12964 | 116.56401 | 25474 ft | 451 kts | 106° |
| 2026-05-08 02:21 | -9.13795 | 116.59463 | 25723 ft | 452 kts | 108° |
| 2026-05-08 02:21 | -9.14702 | 116.62512 | 25967 ft | 453 kts | 109° |
| 2026-05-08 02:21 | -9.15656 | 116.65556 | 26205 ft | 455 kts | 109° |
| 2026-05-08 02:22 | -9.16626 | 116.68608 | 26423 ft | 457 kts | 109° |
| 2026-05-08 02:22 | -9.17595 | 116.71677 | 26645 ft | 459 kts | 109° |
| 2026-05-08 02:22 | -9.18550 | 116.74761 | 26867 ft | 460 kts | 109° |
| 2026-05-08 02:22 | -9.19493 | 116.77861 | 27081 ft | 462 kts | 108° |
| 2026-05-08 02:23 | -9.20429 | 116.80975 | 27297 ft | 463 kts | 108° |
| 2026-05-08 02:23 | -9.21365 | 116.84101 | 27512 ft | 465 kts | 108° |
| 2026-05-08 02:23 | -9.22305 | 116.87233 | 27728 ft | 466 kts | 108° |
| 2026-05-08 02:23 | -9.23248 | 116.90374 | 27942 ft | 467 kts | 109° |
| 2026-05-08 02:24 | -9.24200 | 116.93527 | 28131 ft | 469 kts | 109° |
| 2026-05-08 02:24 | -9.25155 | 116.96691 | 28325 ft | 470 kts | 109° |
| 2026-05-08 02:24 | -9.26112 | 116.99859 | 28499 ft | 472 kts | 109° |
| 2026-05-08 02:24 | -9.27071 | 117.03040 | 28705 ft | 473 kts | 108° |
| 2026-05-08 02:25 | -9.27998 | 117.06196 | 28872 ft | 475 kts | 108° |
| 2026-05-08 02:25 | -9.28904 | 117.09410 | 29038 ft | 476 kts | 107° |
| 2026-05-08 02:25 | -9.29792 | 117.12645 | 29198 ft | 478 kts | 107° |
| 2026-05-08 02:25 | -9.30671 | 117.15894 | 29358 ft | 479 kts | 107° |
| 2026-05-08 02:26 | -9.31553 | 117.19148 | 29515 ft | 480 kts | 107° |
| 2026-05-08 02:26 | -9.32448 | 117.22407 | 29690 ft | 481 kts | 107° |
| 2026-05-08 02:26 | -9.33354 | 117.25674 | 29849 ft | 483 kts | 107° |
| 2026-05-08 02:26 | -9.34269 | 117.28944 | 30010 ft | 483 kts | 107° |
| 2026-05-08 02:27 | -9.35185 | 117.32216 | 30213 ft | 483 kts | 107° |
| 2026-05-08 02:27 | -9.36096 | 117.35484 | 30438 ft | 482 kts | 107° |
| 2026-05-08 02:27 | -9.37004 | 117.38754 | 30657 ft | 482 kts | 107° |
| 2026-05-08 02:27 | -9.37913 | 117.42020 | 30883 ft | 481 kts | 107° |
| 2026-05-08 02:28 | -9.38821 | 117.45277 | 31107 ft | 481 kts | 107° |
| 2026-05-08 02:28 | -9.39727 | 117.48537 | 31322 ft | 481 kts | 107° |
| 2026-05-08 02:28 | -9.40630 | 117.51794 | 31545 ft | 480 kts | 107° |
| 2026-05-08 02:28 | -9.41531 | 117.55044 | 31776 ft | 479 kts | 107° |
| 2026-05-08 02:29 | -9.42432 | 117.58291 | 32013 ft | 479 kts | 107° |
| 2026-05-08 02:29 | -9.43316 | 117.61540 | 32236 ft | 478 kts | 106° |
| 2026-05-08 02:29 | -9.44148 | 117.64799 | 32448 ft | 478 kts | 105° |
| 2026-05-08 02:29 | -9.44943 | 117.68070 | 32653 ft | 478 kts | 104° |
| 2026-05-08 02:30 | -9.45720 | 117.71342 | 32864 ft | 478 kts | 104° |
| 2026-05-08 02:30 | -9.46496 | 117.74615 | 33088 ft | 477 kts | 104° |
| 2026-05-08 02:30 | -9.47275 | 117.77877 | 33318 ft | 476 kts | 104° |
| 2026-05-08 02:30 | -9.48064 | 117.81129 | 33532 ft | 476 kts | 105° |
| 2026-05-08 02:31 | -9.48864 | 117.84382 | 33717 ft | 476 kts | 105° |
| 2026-05-08 02:31 | -9.49670 | 117.87633 | 33898 ft | 477 kts | 105° |
| 2026-05-08 02:31 | -9.51266 | 117.94105 | 33937 ft | 471 kts | 104° |
| 2026-05-08 02:32 | -9.52834 | 118.00534 | 33952 ft | 470 kts | 104° |
| 2026-05-08 02:32 | -9.54410 | 118.06965 | 33937 ft | 470 kts | 104° |
| 2026-05-08 02:33 | -9.55980 | 118.13393 | 33940 ft | 470 kts | 104° |
| 2026-05-08 02:33 | -9.57548 | 118.19826 | 33946 ft | 470 kts | 104° |
| 2026-05-08 02:34 | -9.59117 | 118.26269 | 33949 ft | 471 kts | 104° |
| 2026-05-08 02:34 | -9.60691 | 118.32711 | 33948 ft | 471 kts | 104° |
| 2026-05-08 02:35 | -9.62260 | 118.39157 | 33951 ft | 471 kts | 104° |
| 2026-05-08 02:35 | -9.63830 | 118.45595 | 33954 ft | 471 kts | 104° |
| 2026-05-08 02:36 | -9.65390 | 118.52000 | 33949 ft | 471 kts | 104° |
| 2026-05-08 02:36 | -9.66953 | 118.58441 | 33943 ft | 471 kts | 104° |
| 2026-05-08 02:37 | -9.68516 | 118.64888 | 33934 ft | 471 kts | 104° |
| 2026-05-08 02:37 | -9.70077 | 118.71340 | 33942 ft | 471 kts | 104° |
| 2026-05-08 02:38 | -9.71644 | 118.77789 | 33942 ft | 471 kts | 104° |
| 2026-05-08 02:38 | -9.73208 | 118.84240 | 33936 ft | 471 kts | 104° |
| 2026-05-08 02:39 | -9.74771 | 118.90688 | 33934 ft | 472 kts | 104° |
| 2026-05-08 02:39 | -9.76333 | 118.97155 | 33937 ft | 473 kts | 104° |
| 2026-05-08 02:40 | -9.77896 | 119.03622 | 33940 ft | 472 kts | 104° |
| 2026-05-08 02:40 | -9.79457 | 119.10092 | 33934 ft | 472 kts | 104° |
| 2026-05-08 02:41 | -9.81019 | 119.16561 | 33931 ft | 473 kts | 104° |
| 2026-05-08 02:41 | -9.82575 | 119.23033 | 33935 ft | 473 kts | 104° |
| 2026-05-08 02:42 | -9.84132 | 119.29514 | 33933 ft | 473 kts | 104° |
| 2026-05-08 02:42 | -9.85690 | 119.36005 | 33928 ft | 474 kts | 104° |
| 2026-05-08 02:43 | -9.87247 | 119.42496 | 33926 ft | 474 kts | 104° |
| 2026-05-08 02:43 | -9.88808 | 119.48990 | 33928 ft | 474 kts | 104° |
| 2026-05-08 02:44 | -9.90373 | 119.55497 | 33928 ft | 475 kts | 104° |
| 2026-05-08 02:44 | -9.91938 | 119.62005 | 33936 ft | 475 kts | 104° |
| 2026-05-08 02:45 | -9.93494 | 119.68510 | 33945 ft | 474 kts | 104° |
| 2026-05-08 02:45 | -9.95048 | 119.75019 | 33936 ft | 475 kts | 104° |
| 2026-05-08 02:46 | -9.96600 | 119.81541 | 33937 ft | 476 kts | 104° |
| 2026-05-08 02:46 | -9.98155 | 119.88068 | 33950 ft | 476 kts | 104° |
| 2026-05-08 02:47 | -9.99712 | 119.94595 | 33945 ft | 476 kts | 104° |
| 2026-05-08 02:47 | -10.01262 | 120.01124 | 33947 ft | 476 kts | 104° |
| 2026-05-08 02:48 | -10.02825 | 120.07655 | 33952 ft | 476 kts | 104° |
| 2026-05-08 02:48 | -10.04394 | 120.14181 | 33947 ft | 476 kts | 104° |
| 2026-05-08 02:49 | -10.05959 | 120.20701 | 33945 ft | 476 kts | 104° |
| 2026-05-08 02:49 | -10.07507 | 120.27191 | 33941 ft | 476 kts | 104° |
| 2026-05-08 02:50 | -10.09065 | 120.33717 | 33937 ft | 476 kts | 104° |
| 2026-05-08 02:50 | -10.10630 | 120.40263 | 33947 ft | 478 kts | 104° |
| 2026-05-08 02:51 | -10.12197 | 120.46816 | 33951 ft | 478 kts | 104° |
| 2026-05-08 02:51 | -10.13754 | 120.53361 | 33954 ft | 477 kts | 104° |
| 2026-05-08 02:52 | -10.15300 | 120.59905 | 33943 ft | 477 kts | 104° |
| 2026-05-08 02:52 | -10.16859 | 120.66453 | 33953 ft | 477 kts | 104° |
| 2026-05-08 02:53 | -10.18424 | 120.73003 | 33938 ft | 477 kts | 104° |
| 2026-05-08 02:53 | -10.19975 | 120.79555 | 33950 ft | 478 kts | 104° |
| 2026-05-08 02:54 | -10.21522 | 120.86112 | 33953 ft | 478 kts | 104° |
| 2026-05-08 02:54 | -10.23079 | 120.92679 | 33964 ft | 479 kts | 104° |
| 2026-05-08 02:55 | -10.25415 | 121.02539 | 33967 ft | 479 kts | 104° |
| 2026-05-08 02:56 | -10.26970 | 121.09109 | 33965 ft | 478 kts | 104° |
| 2026-05-08 02:56 | -10.28523 | 121.15673 | 33964 ft | 478 kts | 104° |
| 2026-05-08 02:57 | -10.30076 | 121.22237 | 33958 ft | 478 kts | 104° |
| 2026-05-08 02:57 | -10.31618 | 121.28810 | 33960 ft | 478 kts | 104° |
| 2026-05-08 02:58 | -10.33157 | 121.35385 | 33957 ft | 479 kts | 104° |
| 2026-05-08 02:58 | -10.34703 | 121.41955 | 33960 ft | 479 kts | 104° |
| 2026-05-08 02:59 | -10.36253 | 121.48527 | 33966 ft | 479 kts | 104° |
| 2026-05-08 02:59 | -10.37799 | 121.55115 | 33964 ft | 479 kts | 104° |
| 2026-05-08 03:00 | -10.39343 | 121.61698 | 33963 ft | 480 kts | 104° |
| 2026-05-08 03:00 | -10.40893 | 121.68294 | 33968 ft | 480 kts | 104° |
| 2026-05-08 03:01 | -10.42439 | 121.74875 | 33969 ft | 479 kts | 104° |
| 2026-05-08 03:01 | -10.43957 | 121.81418 | 33968 ft | 479 kts | 104° |
| 2026-05-08 03:02 | -10.45487 | 121.88010 | 33944 ft | 480 kts | 104° |
| 2026-05-08 03:02 | -10.46778 | 121.93549 | 33952 ft | 481 kts | 104° |
| 2026-05-08 03:03 | -10.48325 | 122.00173 | 33937 ft | 482 kts | 104° |
| 2026-05-08 03:03 | -10.49868 | 122.06763 | 33936 ft | 483 kts | 104° |
| 2026-05-08 03:04 | -10.51413 | 122.13403 | 33932 ft | 483 kts | 104° |
| 2026-05-08 03:04 | -10.52956 | 122.20046 | 33934 ft | 483 kts | 104° |
| 2026-05-08 03:05 | -10.54499 | 122.26698 | 33945 ft | 484 kts | 104° |
| 2026-05-08 03:05 | -10.56047 | 122.33353 | 33938 ft | 484 kts | 104° |
| 2026-05-08 03:06 | -10.57587 | 122.40009 | 33941 ft | 484 kts | 104° |
| 2026-05-08 03:06 | -10.59123 | 122.46665 | 33944 ft | 484 kts | 104° |
| 2026-05-08 03:07 | -10.60661 | 122.53326 | 33937 ft | 484 kts | 104° |
| 2026-05-08 03:07 | -10.62197 | 122.59987 | 33936 ft | 484 kts | 103° |
| 2026-05-08 03:08 | -10.63733 | 122.66652 | 33937 ft | 484 kts | 104° |
| 2026-05-08 03:08 | -10.65272 | 122.73317 | 33935 ft | 485 kts | 104° |
| 2026-05-08 03:09 | -10.66809 | 122.79987 | 33937 ft | 485 kts | 104° |
| 2026-05-08 03:09 | -10.68345 | 122.86659 | 33950 ft | 485 kts | 103° |
| 2026-05-08 03:10 | -10.69872 | 122.93326 | 33945 ft | 484 kts | 103° |
| 2026-05-08 03:10 | -10.71406 | 122.99994 | 33937 ft | 484 kts | 103° |
| 2026-05-08 03:11 | -10.72943 | 123.06656 | 33940 ft | 484 kts | 103° |
| 2026-05-08 03:11 | -10.74471 | 123.13328 | 33937 ft | 485 kts | 103° |
| 2026-05-08 03:12 | -10.75991 | 123.20004 | 33936 ft | 484 kts | 103° |
| 2026-05-08 03:12 | -10.77517 | 123.26674 | 33934 ft | 484 kts | 103° |
| 2026-05-08 03:13 | -10.79044 | 123.33336 | 33936 ft | 484 kts | 103° |
| 2026-05-08 03:13 | -10.80551 | 123.39961 | 33934 ft | 484 kts | 103° |
| 2026-05-08 03:14 | -10.82068 | 123.46627 | 33930 ft | 484 kts | 103° |
| 2026-05-08 03:14 | -10.83591 | 123.53297 | 33934 ft | 485 kts | 103° |
| 2026-05-08 03:15 | -10.85110 | 123.59975 | 33944 ft | 485 kts | 103° |
| 2026-05-08 03:15 | -10.86632 | 123.66652 | 33932 ft | 484 kts | 103° |
| 2026-05-08 03:16 | -10.88145 | 123.73320 | 33933 ft | 484 kts | 103° |
| 2026-05-08 03:16 | -10.89653 | 123.79993 | 33924 ft | 484 kts | 103° |
| 2026-05-08 03:17 | -10.91161 | 123.86666 | 33915 ft | 484 kts | 103° |
| 2026-05-08 03:17 | -10.92672 | 123.93339 | 33912 ft | 484 kts | 103° |
| 2026-05-08 03:18 | -10.94177 | 124.00007 | 33912 ft | 484 kts | 103° |
| 2026-05-08 03:18 | -10.95690 | 124.06673 | 33911 ft | 483 kts | 103° |
| 2026-05-08 03:19 | -10.97197 | 124.13341 | 33913 ft | 483 kts | 103° |
| 2026-05-08 03:19 | -10.98694 | 124.20002 | 33912 ft | 483 kts | 103° |
| 2026-05-08 03:20 | -11.00197 | 124.26666 | 33912 ft | 483 kts | 103° |
| 2026-05-08 03:20 | -11.01698 | 124.33330 | 33913 ft | 483 kts | 103° |
| 2026-05-08 03:21 | -11.03193 | 124.39999 | 33911 ft | 483 kts | 103° |
| 2026-05-08 03:21 | -11.04685 | 124.46671 | 33912 ft | 484 kts | 103° |
| 2026-05-08 03:22 | -11.06168 | 124.53303 | 33917 ft | 484 kts | 103° |
| 2026-05-08 03:22 | -11.07659 | 124.59973 | 33913 ft | 483 kts | 103° |
| 2026-05-08 03:23 | -11.09131 | 124.66653 | 33915 ft | 483 kts | 103° |
| 2026-05-08 03:23 | -11.10590 | 124.73332 | 33919 ft | 483 kts | 103° |
| 2026-05-08 03:24 | -11.12057 | 124.80009 | 33921 ft | 483 kts | 103° |
| 2026-05-08 03:24 | -11.13513 | 124.86692 | 33922 ft | 483 kts | 103° |
| 2026-05-08 03:25 | -11.14967 | 124.93371 | 33924 ft | 483 kts | 103° |
| 2026-05-08 03:25 | -11.16425 | 125.00052 | 33926 ft | 483 kts | 103° |
| 2026-05-08 03:26 | -11.17880 | 125.06730 | 33926 ft | 483 kts | 103° |
| 2026-05-08 03:26 | -11.19342 | 125.13407 | 33924 ft | 483 kts | 103° |
| 2026-05-08 03:27 | -11.20798 | 125.20090 | 33926 ft | 483 kts | 103° |
| 2026-05-08 03:27 | -11.22249 | 125.26781 | 33929 ft | 484 kts | 103° |
| 2026-05-08 03:28 | -11.23701 | 125.33477 | 33930 ft | 484 kts | 103° |
| 2026-05-08 03:28 | -11.25143 | 125.40126 | 33951 ft | 484 kts | 103° |
| 2026-05-08 03:29 | -11.26606 | 125.46868 | 33937 ft | 484 kts | 103° |
| 2026-05-08 03:29 | -11.28045 | 125.53519 | 33934 ft | 484 kts | 103° |
| 2026-05-08 03:30 | -11.30213 | 125.63566 | 33925 ft | 485 kts | 103° |
| 2026-05-08 03:31 | -11.33102 | 125.77000 | 33931 ft | 486 kts | 103° |
| 2026-05-08 03:32 | -11.35264 | 125.87083 | 33931 ft | 486 kts | 103° |
| 2026-05-08 03:32 | -11.36714 | 125.93806 | 33927 ft | 486 kts | 103° |
| 2026-05-08 03:33 | -11.38164 | 126.00528 | 33924 ft | 486 kts | 103° |
| 2026-05-08 03:33 | -11.39608 | 126.07251 | 33923 ft | 486 kts | 103° |
| 2026-05-08 03:34 | -11.41042 | 126.13987 | 33925 ft | 486 kts | 103° |
| 2026-05-08 03:34 | -11.42481 | 126.20723 | 33926 ft | 487 kts | 103° |
| 2026-05-08 03:35 | -11.43921 | 126.27460 | 33925 ft | 486 kts | 103° |
| 2026-05-08 03:35 | -11.45352 | 126.34201 | 33935 ft | 486 kts | 103° |
| 2026-05-08 03:36 | -11.46789 | 126.40929 | 33935 ft | 485 kts | 103° |
| 2026-05-08 03:36 | -11.48225 | 126.47654 | 33946 ft | 486 kts | 102° |
| 2026-05-08 03:37 | -11.49648 | 126.54386 | 33944 ft | 486 kts | 103° |
| 2026-05-08 03:37 | -11.51070 | 126.61083 | 33956 ft | 487 kts | 103° |
| 2026-05-08 03:38 | -11.53151 | 126.67610 | 33958 ft | 484 kts | 116° |
| 2026-05-08 03:38 | -11.55972 | 126.73836 | 33956 ft | 483 kts | 116° |
| 2026-05-08 03:39 | -11.58788 | 126.80104 | 33952 ft | 483 kts | 116° |
| 2026-05-08 03:39 | -11.61573 | 126.86321 | 33951 ft | 481 kts | 116° |
| 2026-05-08 03:40 | -11.64361 | 126.92530 | 33937 ft | 481 kts | 116° |
| 2026-05-08 03:40 | -11.67130 | 126.98697 | 33936 ft | 481 kts | 116° |
| 2026-05-08 03:41 | -11.69930 | 127.04947 | 33937 ft | 481 kts | 116° |
| 2026-05-08 03:41 | -11.72710 | 127.11161 | 33944 ft | 481 kts | 116° |
| 2026-05-08 03:42 | -11.75476 | 127.17327 | 33935 ft | 481 kts | 116° |
| 2026-05-08 03:42 | -11.78260 | 127.23535 | 33950 ft | 481 kts | 116° |
| 2026-05-08 03:43 | -11.81035 | 127.29745 | 33938 ft | 481 kts | 116° |
| 2026-05-08 03:43 | -11.83807 | 127.35959 | 33936 ft | 481 kts | 116° |
| 2026-05-08 03:44 | -11.86580 | 127.42170 | 33936 ft | 481 kts | 116° |
| 2026-05-08 03:44 | -11.89353 | 127.48373 | 33935 ft | 481 kts | 116° |
| 2026-05-08 03:45 | -11.92121 | 127.54585 | 33937 ft | 481 kts | 116° |
| 2026-05-08 03:45 | -11.94886 | 127.60799 | 33935 ft | 480 kts | 116° |
| 2026-05-08 03:46 | -11.97657 | 127.67004 | 33925 ft | 480 kts | 116° |
| 2026-05-08 03:46 | -12.00428 | 127.73207 | 33924 ft | 480 kts | 116° |
| 2026-05-08 03:47 | -12.03186 | 127.79427 | 33930 ft | 481 kts | 116° |
| 2026-05-08 03:47 | -12.05923 | 127.85612 | 33932 ft | 481 kts | 116° |
| 2026-05-08 03:48 | -12.08719 | 127.91876 | 33934 ft | 481 kts | 116° |
| 2026-05-08 03:48 | -12.11467 | 127.98061 | 33932 ft | 482 kts | 116° |
| 2026-05-08 03:49 | -12.14231 | 128.04287 | 33934 ft | 481 kts | 116° |
| 2026-05-08 03:49 | -12.16987 | 128.10516 | 33936 ft | 481 kts | 116° |
| 2026-05-08 03:50 | -12.19741 | 128.16747 | 33934 ft | 481 kts | 116° |
| 2026-05-08 03:50 | -12.22039 | 128.21921 | 33933 ft | 481 kts | 116° |
| 2026-05-08 03:51 | -12.24793 | 128.28151 | 33933 ft | 481 kts | 116° |
| 2026-05-08 03:51 | -12.27544 | 128.34389 | 33934 ft | 482 kts | 116° |
| 2026-05-08 03:52 | -12.30304 | 128.40640 | 33933 ft | 483 kts | 116° |
| 2026-05-08 03:52 | -12.33071 | 128.46893 | 33945 ft | 483 kts | 116° |
| 2026-05-08 03:53 | -12.35835 | 128.53153 | 33947 ft | 483 kts | 116° |
| 2026-05-08 03:53 | -12.38599 | 128.59424 | 33953 ft | 484 kts | 116° |
| 2026-05-08 03:54 | -12.41358 | 128.65700 | 33943 ft | 484 kts | 116° |
| 2026-05-08 03:54 | -12.44119 | 128.71984 | 33943 ft | 484 kts | 116° |
| 2026-05-08 03:55 | -12.46883 | 128.78263 | 33956 ft | 484 kts | 116° |
| 2026-05-08 03:55 | -12.49644 | 128.84538 | 33956 ft | 484 kts | 116° |
| 2026-05-08 03:56 | -12.52379 | 128.90776 | 33961 ft | 484 kts | 115° |
| 2026-05-08 03:56 | -12.55136 | 128.97055 | 33961 ft | 484 kts | 115° |
| 2026-05-08 03:57 | -12.57907 | 129.03386 | 33965 ft | 484 kts | 115° |
| 2026-05-08 03:57 | -12.60642 | 129.09630 | 33966 ft | 484 kts | 115° |
| 2026-05-08 03:58 | -12.63405 | 129.15920 | 33969 ft | 485 kts | 115° |
| 2026-05-08 03:58 | -12.66161 | 129.22216 | 33974 ft | 485 kts | 115° |
| 2026-05-08 03:59 | -12.68913 | 129.28513 | 33973 ft | 484 kts | 115° |
| 2026-05-08 03:59 | -12.71659 | 129.34815 | 33973 ft | 484 kts | 115° |
| 2026-05-08 04:00 | -12.74405 | 129.41115 | 33975 ft | 484 kts | 115° |
| 2026-05-08 04:00 | -12.77158 | 129.47413 | 33974 ft | 484 kts | 115° |
| 2026-05-08 04:01 | -12.79905 | 129.53709 | 33973 ft | 484 kts | 115° |
| 2026-05-08 04:01 | -12.82652 | 129.60013 | 33972 ft | 485 kts | 115° |
| 2026-05-08 04:02 | -12.85390 | 129.66320 | 33969 ft | 484 kts | 115° |
| 2026-05-08 04:02 | -12.88129 | 129.72635 | 33970 ft | 485 kts | 115° |
| 2026-05-08 04:03 | -12.90872 | 129.78951 | 33962 ft | 485 kts | 115° |
| 2026-05-08 04:03 | -12.94984 | 129.88431 | 33960 ft | 485 kts | 115° |
| 2026-05-08 04:04 | -12.97733 | 129.94753 | 33958 ft | 486 kts | 115° |
| 2026-05-08 04:04 | -13.00471 | 130.01087 | 33960 ft | 486 kts | 115° |
| 2026-05-08 04:05 | -13.03138 | 130.07462 | 33962 ft | 487 kts | 114° |
| 2026-05-08 04:05 | -13.05738 | 130.13825 | 33961 ft | 487 kts | 114° |
| 2026-05-08 04:06 | -13.08359 | 130.20232 | 33965 ft | 488 kts | 114° |
| 2026-05-08 04:06 | -13.10999 | 130.26640 | 33959 ft | 487 kts | 114° |
| 2026-05-08 04:07 | -13.13645 | 130.33044 | 33962 ft | 488 kts | 114° |